Time;durP1;ratioP1;P1;durP2;ratioP2;P2;SDS_P1;SDS_P2;PMS_P1;PMS_P2;Temp;Humidity;BMP_temperature;BMP_pressure;BME280_temperature;BME280_humidity;BME280_pressure;Samples;Min_cycle;Max_cycle;Signal;HPM_P1;HPM_P2
2024/01/10 00:02:21;;;;;;;10.60;4.50;;;;;;;1.66;51.49;101047.61;108142;1254;72618;-65
2024/01/10 00:04:49;;;;;;;7.90;4.30;;;;;;;1.61;51.65;101037.32;108080;1254;69700;-65
2024/01/10 00:07:17;;;;;;;8.80;4.50;;;;;;;1.47;51.79;101034.88;108066;1254;72652;-65
2024/01/10 00:09:45;;;;;;;9.10;4.70;;;;;;;1.57;51.36;101047.66;108220;1254;60434;-65
2024/01/10 00:12:13;;;;;;;9.10;4.70;;;;;;;1.67;51.31;101041.58;108097;1254;60416;-66
2024/01/10 00:14:41;;;;;;;8.20;4.60;;;;;;;1.80;51.04;101040.88;108085;1254;74251;-66
2024/01/10 00:17:08;;;;;;;7.50;4.90;;;;;;;1.79;51.00;101029.09;108211;1253;69526;-67
2024/01/10 00:19:37;;;;;;;8.00;4.40;;;;;;;1.63;51.22;101025.23;108174;1254;71778;-66
2024/01/10 00:22:05;;;;;;;8.00;4.60;;;;;;;1.61;51.42;101025.04;108119;1253;60438;-66
2024/01/10 00:24:32;;;;;;;8.90;5.00;;;;;;;1.64;51.45;101023.52;108134;1253;60315;-67
2024/01/10 00:27:00;;;;;;;13.50;5.30;;;;;;;1.60;51.49;101016.55;108087;1254;73803;-65
2024/01/10 00:29:27;;;;;;;7.30;4.50;;;;;;;1.53;51.66;101009.52;108060;1254;68852;-66
2024/01/10 00:31:59;;;;;;;9.30;5.30;;;;;;;1.43;51.80;101015.09;108145;1254;71639;-62
2024/01/10 00:34:27;;;;;;;10.50;5.20;;;;;;;1.49;51.65;101016.21;108075;1253;60513;-66
2024/01/10 00:36:56;;;;;;;7.80;4.70;;;;;;;1.40;51.86;101021.98;108145;1253;60549;-66
2024/01/10 00:39:23;;;;;;;12.50;5.20;;;;;;;1.46;51.63;101019.64;108097;1253;72202;-68
2024/01/10 00:41:50;;;;;;;7.80;4.80;;;;;;;1.53;51.60;101016.80;108085;1254;70295;-66
2024/01/10 00:44:18;;;;;;;8.80;5.00;;;;;;;1.45;51.84;101017.38;108067;1254;71420;-66
2024/01/10 00:46:46;;;;;;;9.00;4.80;;;;;;;1.57;51.54;101019.97;108241;1253;60685;-66
2024/01/10 00:49:13;;;;;;;9.30;5.50;;;;;;;1.57;51.72;101026.38;108145;1257;59143;-66
2024/01/10 00:51:44;;;;;;;15.40;6.30;;;;;;;1.55;51.56;101019.59;108121;1254;72389;-68
2024/01/10 00:54:11;;;;;;;10.40;5.60;;;;;;;1.39;51.89;101018.67;108168;1253;68714;-66
2024/01/10 00:56:39;;;;;;;9.70;5.30;;;;;;;1.41;51.82;101014.04;108222;1253;72680;-67
2024/01/10 00:59:07;;;;;;;11.20;5.40;;;;;;;1.50;51.79;101013.48;108097;1253;61729;-67
2024/01/10 01:01:35;;;;;;;10.00;5.20;;;;;;;1.57;51.72;101005.94;108097;1254;60194;-65
2024/01/10 01:04:02;;;;;;;8.60;5.00;;;;;;;1.59;51.52;100994.38;108070;1254;73807;-65
2024/01/10 01:06:30;;;;;;;9.30;5.30;;;;;;;1.58;51.55;100989.70;108083;1254;68724;-65
2024/01/10 01:08:58;;;;;;;11.90;5.60;;;;;;;1.56;51.58;100992.25;108064;1254;71244;-66
2024/01/10 01:11:26;;;;;;;9.40;5.40;;;;;;;1.51;51.72;100985.09;108012;1254;60441;-65
2024/01/10 01:13:53;;;;;;;9.60;5.20;;;;;;;1.48;51.81;100985.73;108094;1254;60331;-66
2024/01/10 01:16:21;;;;;;;14.80;6.20;;;;;;;1.58;51.65;100980.88;108163;1254;72590;-65
2024/01/10 01:18:48;;;;;;;9.90;5.10;;;;;;;1.65;51.49;100982.16;108149;1253;70637;-66
2024/01/10 01:21:16;;;;;;;11.10;5.10;;;;;;;1.60;51.59;100974.66;108137;1254;71823;-66
2024/01/10 01:23:44;;;;;;;11.70;4.90;;;;;;;1.54;51.52;100970.60;108153;1254;61681;-65
2024/01/10 01:26:13;;;;;;;11.50;4.70;;;;;;;1.56;51.70;100973.91;108033;1254;60369;-65
2024/01/10 01:28:42;;;;;;;11.40;4.90;;;;;;;1.61;51.56;100971.20;108067;1254;73435;-67
2024/01/10 01:31:10;;;;;;;9.90;5.20;;;;;;;1.59;51.48;100967.72;108065;1253;70793;-64
2024/01/10 01:33:39;;;;;;;12.60;5.50;;;;;;;1.70;51.33;100964.05;108135;1257;72730;-65
2024/01/10 01:36:06;;;;;;;10.20;5.10;;;;;;;1.73;51.30;100963.57;108088;1254;60764;-64
2024/01/10 01:38:35;;;;;;;8.40;4.60;;;;;;;1.66;51.50;100963.99;108171;1252;60216;-67
2024/01/10 01:41:02;;;;;;;9.90;5.60;;;;;;;1.63;51.66;100959.81;108125;1254;72562;-67
2024/01/10 01:43:30;;;;;;;10.00;5.20;;;;;;;1.67;51.62;100956.58;108195;1253;70050;-66
2024/01/10 01:45:58;;;;;;;8.50;4.60;;;;;;;1.57;51.77;100953.67;108231;1254;71583;-66
2024/01/10 01:48:25;;;;;;;8.80;5.00;;;;;;;1.54;51.97;100949.65;108151;1253;61671;-65
2024/01/10 01:51:06;;;;;;;7.20;4.70;;;;;;;1.48;52.01;100941.61;108051;1254;60302;-66
2024/01/10 01:53:37;;;;;;;10.70;4.90;;;;;;;1.37;52.54;100933.86;108086;1253;73805;-67
2024/01/10 01:56:08;;;;;;;;;;;;;;;1.35;52.54;100927.27;108110;1253;70581;-66
2024/01/10 01:58:36;;;;;;;7.90;4.70;;;;;;;1.29;52.67;100923.39;108125;1254;72806;-67
2024/01/10 02:01:04;;;;;;;13.20;5.70;;;;;;;1.26;52.94;100918.31;108196;1254;60366;-64
2024/01/10 02:03:34;;;;;;;12.30;4.40;;;;;;;1.46;52.22;100917.71;108069;1254;60203;-65
2024/01/10 02:06:05;;;;;;;7.60;4.70;;;;;;;1.53;52.20;100912.42;108083;1254;72196;-67
2024/01/10 02:08:33;;;;;;;10.60;5.40;;;;;;;1.63;52.40;100906.16;108214;1254;68737;-67
2024/01/10 02:11:01;;;;;;;8.40;4.90;;;;;;;1.70;52.05;100897.76;108201;1253;72706;-66
2024/01/10 02:13:29;;;;;;;9.00;4.60;;;;;;;1.64;51.86;100893.70;108022;1254;61146;-65
2024/01/10 02:15:56;;;;;;;8.30;4.80;;;;;;;1.67;51.96;100889.23;108167;1253;60435;-66
2024/01/10 02:18:24;;;;;;;11.00;5.00;;;;;;;1.77;51.82;100882.77;108171;1253;72905;-66
2024/01/10 02:20:52;;;;;;;9.10;4.60;;;;;;;1.74;51.72;100880.14;108272;1253;70165;-63
2024/01/10 02:23:20;;;;;;;10.40;4.70;;;;;;;1.69;52.02;100881.30;108169;1253;72714;-64
2024/01/10 02:25:47;;;;;;;9.00;4.40;;;;;;;1.55;52.40;100883.73;108112;1253;60754;-64
2024/01/10 02:28:15;;;;;;;11.40;4.80;;;;;;;1.56;52.40;100882.17;108057;1253;60351;-63
2024/01/10 02:30:42;;;;;;;7.00;4.70;;;;;;;1.69;52.22;100877.15;108076;1254;73773;-67
2024/01/10 02:33:10;;;;;;;9.10;4.70;;;;;;;1.78;51.96;100874.98;108086;1253;69273;-66
2024/01/10 02:35:38;;;;;;;8.70;4.70;;;;;;;1.72;52.01;100867.64;108200;1253;72648;-64
2024/01/10 02:38:05;;;;;;;8.30;5.00;;;;;;;1.59;52.38;100868.36;108049;1254;60408;-67
2024/01/10 02:40:34;;;;;;;6.90;4.60;;;;;;;1.71;52.27;100863.66;108131;1253;60225;-65
2024/01/10 02:43:02;;;;;;;8.70;4.30;;;;;;;1.75;51.97;100860.92;108172;1253;71705;-66
2024/01/10 02:45:29;;;;;;;9.80;4.90;;;;;;;1.67;52.20;100863.45;108091;1257;71922;-66
2024/01/10 02:47:57;;;;;;;8.30;5.00;;;;;;;1.75;52.00;100858.68;108084;1253;71381;-65
2024/01/10 02:50:24;;;;;;;11.80;5.40;;;;;;;1.78;51.96;100864.08;108140;1254;61606;-67
2024/01/10 02:52:52;;;;;;;9.10;4.80;;;;;;;1.76;52.17;100864.40;108051;1254;59156;-67
2024/01/10 02:55:20;;;;;;;8.60;4.70;;;;;;;1.77;52.09;100861.64;108072;1254;72686;-66
2024/01/10 02:57:47;;;;;;;10.10;4.80;;;;;;;1.81;52.23;100868.78;108094;1254;70177;-65
2024/01/10 03:00:19;;;;;;;9.60;4.60;;;;;;;1.96;51.88;100863.40;108060;1257;72427;-65
2024/01/10 03:02:46;;;;;;;;;;;;;;;1.80;52.14;100867.73;108117;1254;61655;-65
2024/01/10 03:05:14;;;;;;;12.10;5.10;;;;;;;1.81;52.26;100873.63;108068;1254;59217;-66
2024/01/10 03:07:41;;;;;;;9.50;4.70;;;;;;;1.87;52.11;100865.21;108187;1253;72251;-65
2024/01/10 03:10:09;;;;;;;9.60;5.30;;;;;;;1.97;51.93;100865.83;108078;1254;68824;-65
2024/01/10 03:12:37;;;;;;;10.40;5.10;;;;;;;2.03;51.82;100858.61;108201;1257;72667;-67
2024/01/10 03:15:06;;;;;;;12.00;4.90;;;;;;;1.96;51.82;100859.77;108210;1254;61294;-66
2024/01/10 03:17:34;;;;;;;7.40;4.60;;;;;;;1.95;51.89;100859.40;108097;1254;60357;-66
2024/01/10 03:20:03;;;;;;;8.50;5.10;;;;;;;1.82;52.30;100858.77;108063;1254;74378;-65
2024/01/10 03:22:32;;;;;;;10.40;5.20;;;;;;;1.71;52.69;100856.38;108157;1253;67988;-65
2024/01/10 03:24:59;;;;;;;9.50;4.90;;;;;;;1.81;52.42;100852.34;108132;1254;71485;-66
2024/01/10 03:27:27;;;;;;;9.90;5.60;;;;;;;1.93;52.14;100854.89;108105;1253;61667;-67
2024/01/10 03:29:54;;;;;;;11.70;5.50;;;;;;;2.00;52.04;100849.75;108229;1253;60334;-66
2024/01/10 03:32:22;;;;;;;10.60;5.30;;;;;;;1.96;52.30;100845.55;108147;1254;73888;-66
2024/01/10 03:34:51;;;;;;;11.40;5.70;;;;;;;1.98;52.03;100845.74;108160;1253;69308;-66
2024/01/10 03:37:19;;;;;;;11.30;6.10;;;;;;;1.97;52.05;100848.34;108190;1253;71789;-65
2024/01/10 03:39:46;;;;;;;9.30;5.30;;;;;;;1.89;52.34;100845.66;108190;1253;61663;-67
2024/01/10 03:42:15;;;;;;;10.10;5.50;;;;;;;1.83;52.35;100842.99;108146;1253;59601;-64
2024/01/10 03:44:43;;;;;;;11.10;5.60;;;;;;;1.88;52.26;100845.14;108288;1254;73911;-67
2024/01/10 03:47:10;;;;;;;12.50;6.10;;;;;;;1.90;52.20;100847.23;108150;1254;69046;-66
2024/01/10 03:49:38;;;;;;;12.40;6.30;;;;;;;2.00;52.06;100835.90;108173;1254;71563;-66
2024/01/10 03:52:06;;;;;;;13.20;6.10;;;;;;;2.03;51.93;100835.58;108111;1257;60713;-66
2024/01/10 03:54:33;;;;;;;9.10;5.20;;;;;;;1.98;52.23;100837.43;108181;1254;60422;-64
2024/01/10 03:57:01;;;;;;;11.60;6.10;;;;;;;1.91;52.34;100833.55;108075;1254;71928;-66
2024/01/10 03:59:28;;;;;;;11.10;5.80;;;;;;;1.97;52.05;100832.39;108168;1253;68990;-67
2024/01/10 04:01:56;;;;;;;11.00;6.30;;;;;;;1.85;52.45;100831.95;108101;1254;72601;-67
2024/01/10 04:04:23;;;;;;;14.40;6.20;;;;;;;1.77;52.36;100831.52;108138;1253;60394;-67
2024/01/10 04:06:52;;;;;;;11.20;6.30;;;;;;;1.73;52.51;100833.21;108198;1257;60383;-66
2024/01/10 04:09:19;;;;;;;12.00;6.20;;;;;;;1.89;52.53;100828.17;108083;1253;72783;-66
2024/01/10 04:11:47;;;;;;;13.70;6.30;;;;;;;1.89;52.38;100821.42;108092;1254;67944;-66
2024/01/10 04:14:17;;;;;;;13.60;6.70;;;;;;;2.05;52.28;100818.27;108104;1254;72651;-67
2024/01/10 04:16:45;;;;;;;13.90;7.50;;;;;;;2.11;51.88;100814.52;108138;1254;60539;-67
2024/01/10 04:19:12;;;;;;;11.70;6.00;;;;;;;2.08;51.94;100815.36;108138;1254;60302;-66
2024/01/10 04:21:40;;;;;;;11.80;6.00;;;;;;;2.12;51.95;100809.84;108220;1254;73792;-67
2024/01/10 04:24:08;;;;;;;14.00;6.60;;;;;;;2.11;51.77;100813.12;108183;1254;69932;-67
2024/01/10 04:26:35;;;;;;;18.40;7.10;;;;;;;2.20;51.65;100808.87;108203;1253;71372;-66
2024/01/10 04:29:03;;;;;;;15.40;7.40;;;;;;;2.13;51.65;100807.42;108108;1254;61771;-66
2024/01/10 04:31:30;;;;;;;14.10;7.00;;;;;;;1.91;52.29;100811.57;108197;1253;60258;-66
2024/01/10 04:33:58;;;;;;;14.40;7.00;;;;;;;1.89;52.36;100817.08;108131;1253;73782;-69
2024/01/10 04:36:25;;;;;;;16.30;7.30;;;;;;;1.90;52.54;100820.73;108189;1257;68830;-67
2024/01/10 04:38:53;;;;;;;15.60;7.80;;;;;;;1.91;52.52;100815.19;108116;1253;72750;-67
2024/01/10 04:41:21;;;;;;;15.50;7.10;;;;;;;1.89;52.36;100822.28;108226;1252;61727;-66
2024/01/10 04:43:49;;;;;;;12.70;7.40;;;;;;;1.86;52.57;100823.29;108189;1253;60254;-65
2024/01/10 04:46:17;;;;;;;14.00;7.30;;;;;;;1.91;52.65;100827.16;108078;1254;72210;-66
2024/01/10 04:48:44;;;;;;;14.20;7.70;;;;;;;1.93;52.62;100833.40;108100;1254;68683;-66
2024/01/10 04:51:12;;;;;;;12.60;7.10;;;;;;;1.81;52.76;100839.87;108136;1254;71744;-66
2024/01/10 04:53:40;;;;;;;13.90;7.40;;;;;;;1.95;52.61;100844.67;108173;1254;60335;-66
2024/01/10 04:56:07;;;;;;;17.10;7.30;;;;;;;1.89;52.76;100846.01;108125;1253;59157;-65
2024/01/10 04:58:36;;;;;;;15.30;7.30;;;;;;;1.95;52.93;100847.28;108173;1254;73820;-66
2024/01/10 05:01:04;;;;;;;17.50;7.70;;;;;;;2.04;52.77;100847.36;108094;1253;69723;-66
2024/01/10 05:03:32;;;;;;;13.80;6.20;;;;;;;2.01;52.83;100853.39;108120;1254;72752;-67
2024/01/10 05:05:59;;;;;;;12.60;6.80;;;;;;;1.90;53.25;100856.91;108158;1254;60454;-67
2024/01/10 05:08:27;;;;;;;14.30;7.10;;;;;;;1.98;53.03;100858.56;108007;1254;60997;-67
2024/01/10 05:10:55;;;;;;;12.10;6.10;;;;;;;1.74;53.62;100862.65;108110;1254;73764;-65
2024/01/10 05:13:22;;;;;;;15.30;7.30;;;;;;;1.72;53.85;100865.23;108196;1254;69444;-65
2024/01/10 05:15:50;;;;;;;12.60;6.60;;;;;;;1.90;53.67;100868.01;108131;1259;71535;-66
2024/01/10 05:18:18;;;;;;;13.40;6.50;;;;;;;1.94;53.42;100863.20;108221;1253;60453;-64
2024/01/10 05:20:45;;;;;;;15.00;6.90;;;;;;;1.93;53.64;100863.20;108271;1253;60412;-65
2024/01/10 05:23:13;;;;;;;16.70;6.90;;;;;;;1.95;53.66;100861.66;108285;1253;71352;-65
2024/01/10 05:25:41;;;;;;;17.40;7.50;;;;;;;1.86;53.89;100862.08;108156;1253;68715;-66
2024/01/10 05:28:08;;;;;;;16.50;7.20;;;;;;;1.75;54.22;100867.34;108175;1254;72822;-65
2024/01/10 05:30:36;;;;;;;14.30;7.80;;;;;;;1.77;54.21;100873.59;108164;1253;60309;-67
2024/01/10 05:33:03;;;;;;;14.10;6.70;;;;;;;1.77;54.47;100867.69;108155;1252;59735;-66
2024/01/10 05:35:31;;;;;;;17.50;8.30;;;;;;;2.00;53.89;100872.27;108163;1253;74493;-65
2024/01/10 05:37:59;;;;;;;19.30;8.00;;;;;;;1.89;54.14;100872.51;108196;1253;70441;-67
2024/01/10 05:40:27;;;;;;;15.10;6.90;;;;;;;1.83;54.20;100871.23;108184;1253;71288;-66
2024/01/10 05:42:55;;;;;;;17.90;7.90;;;;;;;1.90;54.21;100870.27;108176;1254;61836;-65
2024/01/10 05:45:22;;;;;;;18.20;7.70;;;;;;;1.99;54.00;100869.48;108148;1252;60296;-67
2024/01/10 05:47:49;;;;;;;17.00;8.40;;;;;;;1.97;54.22;100864.78;108167;1254;73777;-67
2024/01/10 05:50:17;;;;;;;15.50;7.20;;;;;;;2.08;54.15;100864.39;108156;1254;70078;-66
2024/01/10 05:52:45;;;;;;;15.00;7.50;;;;;;;2.16;54.02;100866.00;108186;1252;71417;-66
2024/01/10 05:55:16;;;;;;;16.40;8.40;;;;;;;2.32;53.75;100864.23;108160;1253;60687;-67
2024/01/10 05:57:43;;;;;;;18.40;8.90;;;;;;;2.39;53.52;100867.07;108137;1253;60534;-66
2024/01/10 06:00:12;;;;;;;14.80;8.10;;;;;;;2.53;53.19;100869.27;108189;1253;73819;-67
2024/01/10 06:02:40;;;;;;;17.10;8.60;;;;;;;2.34;53.50;100871.20;108174;1253;69954;-66
2024/01/10 06:05:11;;;;;;;17.70;8.40;;;;;;;2.27;53.68;100870.95;108133;1253;72356;-66
2024/01/10 06:07:39;;;;;;;19.10;9.10;;;;;;;2.06;54.22;100870.76;108227;1253;61638;-66
2024/01/10 06:10:07;;;;;;;18.00;9.30;;;;;;;2.09;54.37;100869.75;108098;1253;60313;-67
2024/01/10 06:12:35;;;;;;;19.70;9.20;;;;;;;2.18;54.08;100871.21;108157;1253;73925;-65
2024/01/10 06:15:03;;;;;;;21.30;9.80;;;;;;;2.19;54.22;100869.84;108128;1253;69057;-67
2024/01/10 06:17:31;;;;;;;20.20;9.60;;;;;;;1.99;54.75;100873.30;108190;1257;71428;-65
2024/01/10 06:19:59;;;;;;;19.60;10.30;;;;;;;1.98;55.02;100870.68;108129;1257;60468;-66
2024/01/10 06:22:27;;;;;;;22.80;11.10;;;;;;;1.98;55.04;100875.89;108142;1253;59150;-66
2024/01/10 06:24:57;;;;;;;23.70;11.40;;;;;;;2.04;55.29;100877.51;108076;1254;73145;-67
2024/01/10 06:27:24;;;;;;;23.10;10.10;;;;;;;2.04;55.22;100876.98;107934;1254;70269;-66
2024/01/10 06:29:52;;;;;;;22.90;10.00;;;;;;;2.06;55.32;100879.08;108058;1253;70694;-67
2024/01/10 06:32:19;;;;;;;23.90;11.60;;;;;;;2.22;54.91;100883.57;107993;1255;60689;-66
2024/01/10 06:34:47;;;;;;;21.10;11.20;;;;;;;2.14;55.20;100884.88;107961;1254;60345;-66
2024/01/10 06:37:14;;;;;;;20.80;10.40;;;;;;;2.22;55.12;100885.45;107907;1254;73883;-66
2024/01/10 06:39:43;;;;;;;23.30;11.30;;;;;;;2.25;55.11;100882.20;107943;1254;70090;-67
2024/01/10 06:42:11;;;;;;;22.90;10.60;;;;;;;2.34;54.88;100879.51;107657;1256;72221;-67
2024/01/10 06:44:39;;;;;;;24.50;11.60;;;;;;;2.36;54.86;100877.44;107763;1256;60789;-65
2024/01/10 06:47:07;;;;;;;20.50;10.10;;;;;;;2.12;55.53;100880.53;107850;1256;60566;-66
2024/01/10 06:49:35;;;;;;;28.80;12.60;;;;;;;2.07;55.61;100884.63;107828;1257;73610;-66
2024/01/10 06:52:06;;;;;;;26.80;11.30;;;;;;;2.10;55.59;100882.41;107854;1256;70820;-65
2024/01/10 06:54:35;;;;;;;24.30;12.00;;;;;;;2.04;55.74;100888.94;107795;1256;71578;-67
2024/01/10 06:57:02;;;;;;;26.00;12.20;;;;;;;2.08;55.55;100884.29;107895;1256;61508;-65
2024/01/10 06:59:30;;;;;;;27.20;12.60;;;;;;;2.16;55.21;100885.59;107721;1256;60915;-67
2024/01/10 07:01:59;;;;;;;24.40;11.60;;;;;;;2.24;55.00;100886.87;107896;1256;73932;-66
2024/01/10 07:04:27;;;;;;;26.60;12.20;;;;;;;2.21;55.13;100884.59;107821;1256;70154;-66
2024/01/10 07:06:55;;;;;;;25.30;11.80;;;;;;;2.10;55.41;100881.55;107799;1256;73014;-66
2024/01/10 07:09:23;;;;;;;32.50;13.30;;;;;;;1.93;55.87;100881.73;107818;1256;61683;-66
2024/01/10 07:11:50;;;;;;;25.00;12.70;;;;;;;2.00;55.65;100881.45;107798;1256;60384;-65
2024/01/10 07:14:18;;;;;;;26.60;12.70;;;;;;;2.02;55.53;100880.59;107803;1257;73932;-66
2024/01/10 07:16:47;;;;;;;34.10;13.40;;;;;;;2.02;55.53;100875.58;107682;1256;70113;-67
2024/01/10 07:19:15;;;;;;;25.70;12.70;;;;;;;2.05;55.36;100878.03;107688;1262;72762;-66
2024/01/10 07:21:43;;;;;;;32.90;14.60;;;;;;;2.07;55.37;100873.90;107779;1256;60569;-67
2024/01/10 07:24:10;;;;;;;27.20;13.20;;;;;;;2.17;55.26;100875.20;107646;1256;60433;-66
2024/01/10 07:26:38;;;;;;;28.40;12.50;;;;;;;2.20;55.18;100877.30;107820;1256;73849;-66
2024/01/10 07:29:08;;;;;;;28.10;13.40;;;;;;;2.43;54.84;100880.63;107731;1257;71852;-66
2024/01/10 07:31:36;;;;;;;33.80;13.80;;;;;;;2.37;54.97;100877.10;107684;1258;72694;-66
2024/01/10 07:34:07;;;;;;;31.70;12.90;;;;;;;2.31;54.99;100884.86;107782;1257;60318;-65
2024/01/10 07:36:41;;;;;;;;;;;;;;;2.24;55.01;100879.41;107747;1257;136334;-66
2024/01/10 07:40:08;;;;;;;34.10;14.90;;;;;;;0.98;58.66;100886.67;104866;1291;600387;-68
2024/01/10 07:42:35;;;;;;;28.00;13.70;;;;;;;2.15;55.65;100882.10;107573;1265;61454;-66
2024/01/10 07:45:05;;;;;;;31.90;14.50;;;;;;;2.25;55.54;100885.84;107371;1267;60334;-67
2024/01/10 07:47:37;;;;;;;31.30;15.20;;;;;;;2.36;54.90;100886.63;107350;1266;72742;-67
2024/01/10 07:50:10;;;;;;;34.20;16.10;;;;;;;2.38;54.87;100887.52;107378;1266;70280;-67
2024/01/10 07:52:37;;;;;;;31.70;13.90;;;;;;;2.37;54.84;100889.23;107206;1264;171684;-65
2024/01/10 07:55:05;;;;;;;35.60;16.50;;;;;;;2.48;54.62;100890.36;107428;1263;60505;-66
2024/01/10 07:57:33;;;;;;;33.80;15.60;;;;;;;2.63;54.11;100883.02;107364;1263;59157;-68
2024/01/10 08:00:00;;;;;;;35.20;16.10;;;;;;;2.52;54.28;100885.20;107451;1263;73381;-68
2024/01/10 08:02:27;;;;;;;37.80;15.40;;;;;;;2.47;54.23;100892.09;107418;1263;70801;-67
2024/01/10 08:04:54;;;;;;;35.40;15.40;;;;;;;2.53;54.22;100897.00;107414;1263;72987;-67
2024/01/10 08:07:21;;;;;;;29.70;13.90;;;;;;;2.59;53.93;100901.38;107367;1263;60494;-64
2024/01/10 08:09:48;;;;;;;32.40;15.20;;;;;;;2.46;54.46;100899.89;107415;1264;60176;-66
2024/01/10 08:12:15;;;;;;;37.30;15.50;;;;;;;2.44;54.67;100903.52;107401;1263;73532;-67
2024/01/10 08:14:45;;;;;;;36.60;14.40;;;;;;;2.54;54.47;100908.61;107410;1263;70277;-66
2024/01/10 08:17:12;;;;;;;38.30;15.90;;;;;;;2.58;54.50;100910.91;108273;1253;72715;-67
2024/01/10 08:19:39;;;;;;;38.90;16.20;;;;;;;2.54;54.55;100907.94;108305;1254;62212;-67
2024/01/10 08:22:07;;;;;;;33.50;14.90;;;;;;;2.51;54.90;100913.45;108287;1253;60430;-68
2024/01/10 08:24:34;;;;;;;33.90;15.30;;;;;;;2.48;55.01;100913.77;108241;1253;72978;-65
2024/01/10 08:27:01;;;;;;;32.20;15.40;;;;;;;2.45;55.25;100914.95;108199;1254;70497;-66
2024/01/10 08:29:31;;;;;;;40.00;16.60;;;;;;;2.33;55.45;100910.16;108288;1254;72470;-67
2024/01/10 08:31:58;;;;;;;34.60;15.10;;;;;;;2.44;55.42;100912.52;108277;1253;61831;-66
2024/01/10 08:34:24;;;;;;;35.10;14.50;;;;;;;2.49;55.33;100913.26;108282;1254;59994;-67
2024/01/10 08:36:51;;;;;;;33.50;15.20;;;;;;;2.41;55.65;100914.90;108244;1253;71707;-67
2024/01/10 08:39:18;;;;;;;36.50;15.80;;;;;;;2.40;55.59;100915.60;108274;1253;70624;-67
2024/01/10 08:41:45;;;;;;;31.20;14.00;;;;;;;2.54;55.42;100911.56;108265;1256;72662;-67
2024/01/10 08:44:12;;;;;;;38.30;16.60;;;;;;;2.68;55.28;100909.42;108185;1253;61756;-67
2024/01/10 08:46:39;;;;;;;35.30;15.50;;;;;;;2.65;54.99;100912.52;108241;1254;59970;-67
2024/01/10 08:49:05;;;;;;;39.40;16.40;;;;;;;2.69;55.08;100916.02;108190;1257;73572;-67
2024/01/10 08:51:32;;;;;;;28.80;13.10;;;;;;;2.76;54.82;100909.66;108249;1254;70513;-67
2024/01/10 08:53:59;;;;;;;38.10;15.30;;;;;;;2.65;55.07;100908.02;108286;1254;71706;-67
2024/01/10 08:56:26;;;;;;;35.50;14.30;;;;;;;2.65;55.23;100901.43;108427;1253;61914;-67
2024/01/10 08:58:53;;;;;;;33.00;14.60;;;;;;;2.94;54.98;100896.25;108292;1253;60261;-67
2024/01/10 09:01:20;;;;;;;28.60;12.70;;;;;;;3.29;54.47;100893.50;108266;1255;72911;-66
2024/01/10 09:03:47;;;;;;;36.40;15.30;;;;;;;3.28;54.35;100895.75;108292;1254;68990;-65
2024/01/10 09:06:13;;;;;;;31.80;13.60;;;;;;;3.18;54.41;100889.28;108209;1256;73003;-66
2024/01/10 09:08:40;;;;;;;33.00;15.00;;;;;;;3.17;54.43;100885.80;108205;1252;61889;-66
2024/01/10 09:11:07;;;;;;;32.20;13.80;;;;;;;3.24;54.40;100884.27;108369;1254;60309;-66
2024/01/10 09:13:34;;;;;;;31.90;14.90;;;;;;;3.32;54.33;100877.71;108292;1256;72945;-67
2024/01/10 09:16:01;;;;;;;34.40;15.40;;;;;;;3.53;53.85;100873.13;108230;1253;70415;-67
2024/01/10 09:18:28;;;;;;;34.80;15.20;;;;;;;3.47;53.65;100874.14;108199;1254;72926;-67
2024/01/10 09:20:55;;;;;;;35.80;14.50;;;;;;;3.53;53.71;100876.95;108234;1254;60977;-66
2024/01/10 09:23:23;;;;;;;37.80;15.40;;;;;;;3.56;53.37;100872.80;108289;1253;59961;-67
2024/01/10 09:25:50;;;;;;;32.90;14.70;;;;;;;3.46;53.65;100869.29;108256;1254;74105;-67
2024/01/10 09:28:17;;;;;;;34.00;15.90;;;;;;;3.37;54.03;100872.38;108179;1256;70624;-66
2024/01/10 09:30:44;;;;;;;34.80;14.90;;;;;;;3.33;54.19;100869.91;108221;1253;71197;-67
2024/01/10 09:33:12;;;;;;;29.90;14.10;;;;;;;3.37;54.27;100868.90;108198;1253;61974;-66
2024/01/10 09:35:39;;;;;;;29.00;13.70;;;;;;;3.49;53.88;100872.94;108217;1253;60371;-67
2024/01/10 09:38:06;;;;;;;30.90;14.60;;;;;;;3.52;54.08;100874.34;108295;1253;73103;-67
2024/01/10 09:40:33;;;;;;;33.20;15.80;;;;;;;3.55;54.05;100876.77;108242;1253;70708;-67
2024/01/10 09:43:00;;;;;;;36.30;16.50;;;;;;;3.65;54.12;100879.59;108058;1253;73968;-67
2024/01/10 09:45:26;;;;;;;35.50;15.70;;;;;;;3.60;53.76;100875.23;108237;1253;61953;-67
2024/01/10 09:47:55;;;;;;;32.90;16.20;;;;;;;3.62;53.77;100880.98;108068;1254;60459;-67
2024/01/10 09:50:25;;;;;;;35.30;16.20;;;;;;;3.62;53.73;100873.50;108357;1253;72864;-67
2024/01/10 09:52:53;;;;;;;39.30;17.70;;;;;;;3.66;53.57;100877.34;108298;1253;70354;-67
2024/01/10 09:55:21;;;;;;;34.80;16.20;;;;;;;3.65;53.43;100876.11;108375;1256;71506;-67
2024/01/10 09:57:51;;;;;;;37.40;16.40;;;;;;;3.62;53.35;100876.45;108295;1253;62044;-68
2024/01/10 10:00:18;;;;;;;34.50;15.80;;;;;;;3.55;53.84;100873.66;108341;1253;60361;-67
2024/01/10 10:02:45;;;;;;;38.40;15.80;;;;;;;3.37;54.24;100875.14;108314;1254;71590;-67
2024/01/10 10:05:15;;;;;;;38.10;17.00;;;;;;;3.38;54.45;100877.06;108273;1253;69261;-68
2024/01/10 10:07:45;;;;;;;41.80;17.30;;;;;;;3.57;54.05;100876.61;108219;1254;71586;-66
2024/01/10 10:10:14;;;;;;;38.20;16.50;;;;;;;3.60;54.02;100878.36;108336;1253;61832;-67
2024/01/10 10:12:52;;;;;;;34.50;15.30;;;;;;;3.76;53.82;100877.02;108305;1254;59525;-68
2024/01/10 10:15:22;;;;;;;36.70;16.30;;;;;;;3.81;53.61;100870.44;108327;1255;74033;-67
2024/01/10 10:17:50;;;;;;;35.10;15.80;;;;;;;3.80;53.59;100874.60;108296;1254;69572;-67
2024/01/10 10:20:24;;;;;;;39.50;16.40;;;;;;;3.80;53.53;100873.90;108338;1253;71432;-67
2024/01/10 10:22:59;;;;;;;39.40;16.60;;;;;;;3.76;53.71;100867.98;108173;1253;61780;-68
2024/01/10 10:25:49;;;;;;;35.10;15.50;;;;;;;3.67;53.73;100866.57;108264;1253;61362;-67
2024/01/10 10:28:16;;;;;;;38.20;17.90;;;;;;;3.51;54.05;100861.14;108149;1256;72773;-68
2024/01/10 10:30:56;;;;;;;34.30;16.30;;;;;;;3.63;53.74;100865.86;108233;1253;70431;-67
2024/01/10 10:33:24;;;;;;;40.70;18.50;;;;;;;3.71;53.77;100870.23;108403;1253;72396;-67
2024/01/10 10:35:50;;;;;;;38.10;17.50;;;;;;;3.87;53.27;100870.10;108284;1253;60938;-66
2024/01/10 10:38:22;;;;;;;37.40;16.30;;;;;;;3.70;53.66;100872.14;108267;1254;60050;-67
2024/01/10 10:40:49;;;;;;;37.00;17.60;;;;;;;3.84;53.21;100872.17;108323;1253;72843;-67
2024/01/10 10:43:19;;;;;;;45.80;18.40;;;;;;;3.99;53.09;100874.13;108297;1253;70233;-67
2024/01/10 10:45:49;;;;;;;35.50;17.60;;;;;;;4.04;53.08;100876.90;108338;1253;72504;-68
2024/01/10 10:48:19;;;;;;;39.20;17.50;;;;;;;3.88;53.23;100880.70;108223;1254;63158;-68
2024/01/10 10:51:09;;;;;;;37.80;15.80;;;;;;;3.80;53.64;100881.38;108314;1253;60310;-67
2024/01/10 10:53:38;;;;;;;39.90;18.50;;;;;;;4.05;53.03;100875.17;108177;1253;71759;-67
2024/01/10 10:56:07;;;;;;;39.60;19.20;;;;;;;4.01;53.09;100874.46;108214;1253;68693;-67
2024/01/10 10:58:36;;;;;;;40.60;17.70;;;;;;;4.02;53.04;100868.56;108210;1253;73642;-67
2024/01/10 11:01:07;;;;;;;39.50;17.50;;;;;;;4.03;53.56;100864.90;108245;1254;60521;-66
2024/01/10 11:03:36;;;;;;;37.10;17.00;;;;;;;4.14;53.51;100867.02;108369;1254;60560;-68
2024/01/10 11:06:04;;;;;;;34.00;16.20;;;;;;;4.24;53.22;100869.27;108307;1256;73110;-67
2024/01/10 11:08:36;;;;;;;38.40;17.10;;;;;;;4.29;53.17;100875.03;108282;1253;70405;-68
2024/01/10 11:11:05;;;;;;;40.10;16.60;;;;;;;4.44;52.66;100876.08;108306;1254;72485;-67
2024/01/10 11:13:46;;;;;;;33.70;16.80;;;;;;;4.39;52.66;100874.68;108314;1253;62006;-67
2024/01/10 11:16:25;;;;;;;39.00;17.30;;;;;;;4.35;53.08;100876.59;108248;1254;59594;-66
2024/01/10 11:18:52;;;;;;;32.40;14.60;;;;;;;4.38;52.89;100874.52;108344;1254;71863;-67
2024/01/10 11:21:29;;;;;;;35.20;16.30;;;;;;;4.43;52.51;100872.42;108319;1253;69700;-67
2024/01/10 11:23:57;;;;;;;36.20;16.90;;;;;;;4.42;52.39;100871.73;108281;1254;73989;-68